Stroudsburg, PA (18360)

10:14 PM EST on February 13, 2016 (GMT -0500)
WHKK - Radio Station | | Change Station
CLOSE
Current Station
Personal Weather Station
Location: Stroudsburg, PA
Elevation: 699 ft
Nearby Weather Stations
Active Advisory: Wind Chill Warning

Elev 699 ft 40.99 °N, 75.26 °W | Updated 5 minutes ago

Partly Cloudy
Partly Cloudy
2.7 °F
Feels Like -8 °F
N
5.3
Wind Variable Wind from South

Today
High -- | Low -- °F
--% Chance of Precip.
Yesterday
High -- | Low -- °F
Precip. -- in
Pressure 30.09 in
Visibility 10.0 miles
Clouds Mostly Cloudy 2200 ft
Windchill -8 °F
Dew Point -8 °F
Humidity 61%
Rainfall 0.00 in
Snow Depth Not available.
6:58 AM 5:32 PM
Waxing Crescent, 37% visible
SPECI KMPO 140302Z AUTO 30015G23KT 10SM BKN022 M20/M26 A3009 RMK AO2 T12001256
Pressure 30.09 in
Visibility 10.0 miles
Clouds Mostly Cloudy 2200 ft
Windchill -8 °F
Dew Point -8 °F
Humidity 61%
Rainfall 0.00 in
Snow Depth Not available.
6:58 AM 5:32 PM
Waxing Crescent, 37% visible
SPECI KMPO 140302Z AUTO 30015G23KT 10SM BKN022 M20/M26 A3009 RMK AO2 T12001256

10-Day Weather Forecast

Almanac

Astronomy

Feb. 13, 2016 Rise Set
Actual Time
Civil Twilight
Nautical Twilight
Astronomical Twilight
Moon
Length of Visible Light
Length of Day
Tomorrow will be .
, % of the Moon is Illuminated

Today's Extremes

State Highs State Lows

Community

WunderPhotos

Upload Photos

1,892,733 photos uploaded!

WunderBlog® & News

Nearby

Air Quality

  Air Quality AQ Index Pollutant
Not available.

Snow Depth

Station Depth Elevation

Earthquake Activity

City Distance Mag. Time & Date
Minimum magnitude displayed is 2.5.

Coastal Water Temperatures

Place Temperature

Stations

Nearby Weather Stations

Station Location Temp. Windchill Dew Point Humidity Wind Precip. Elev Updated Type
                   

Watches & Warnings

Wind Chill Warning
Issued: 9:37 PM EST Feb. 13, 2016 – National Weather Service

... Wind chill warning remains in effect until 1 PM EST Sunday...

* locations... the Poconos and Sussex County of far northwestern
New Jersey.

* Wind chill values... as low as 20 to 30 degrees below zero.

* Winds... northwest 10 to 20 mph with gusts up to 30 mph.

* Impacts... wind chill values reaching dangerous levels. The
combination of very low wind chills and frigid air
temperatures have the potential to result in frozen pipes...
frostbite and hypothermia.

Precautionary/preparedness actions...

A wind chill warning means the combination of very cold air and
strong winds will create dangerously low wind chill values. This
will result in frost bite and lead to hypothermia or death if
precautions are not taken.